sensor_id;sensor_type;location;lat;lon;timestamp;pressure;altitude;pressure_sealevel;temperature;humidity
9695;BME280;4690;52.422;13.486;2023-03-03T00:04:20;102024.41;;;2.09;85.49
9695;BME280;4690;52.422;13.486;2023-03-03T00:06:45;102017.28;;;2.08;84.33
9695;BME280;4690;52.422;13.486;2023-03-03T00:09:11;102021.38;;;2.02;84.88
9695;BME280;4690;52.422;13.486;2023-03-03T00:11:37;102032.34;;;2.11;85.01
9695;BME280;4690;52.422;13.486;2023-03-03T00:14:17;102039.94;;;2.17;84.73
9695;BME280;4690;52.422;13.486;2023-03-03T00:16:45;102034.25;;;2.20;84.80
9695;BME280;4690;52.422;13.486;2023-03-03T00:19:19;102037.19;;;2.07;84.08
9695;BME280;4690;52.422;13.486;2023-03-03T00:21:48;102045.47;;;2.25;83.71
9695;BME280;4690;52.422;13.486;2023-03-03T00:24:22;102052.00;;;2.13;82.67
9695;BME280;4690;52.422;13.486;2023-03-03T00:26:55;102040.03;;;1.96;83.11
9695;BME280;4690;52.422;13.486;2023-03-03T00:29:39;102038.88;;;1.89;83.99
9695;BME280;4690;52.422;13.486;2023-03-03T00:32:20;102038.91;;;2.08;83.45
9695;BME280;4690;52.422;13.486;2023-03-03T00:34:48;102039.47;;;2.02;82.73
9695;BME280;4690;52.422;13.486;2023-03-03T00:37:34;102025.50;;;1.97;83.31
9695;BME280;4690;52.422;13.486;2023-03-03T00:40:15;102019.25;;;1.96;82.82
9695;BME280;4690;52.422;13.486;2023-03-03T00:42:49;102012.97;;;1.86;82.37
9695;BME280;4690;52.422;13.486;2023-03-03T00:45:37;102013.94;;;1.75;82.44
9695;BME280;4690;52.422;13.486;2023-03-03T00:51:00;102018.78;;;1.82;82.89
9695;BME280;4690;52.422;13.486;2023-03-03T00:53:29;102018.06;;;1.70;82.83
9695;BME280;4690;52.422;13.486;2023-03-03T00:55:56;102013.94;;;1.75;83.98
9695;BME280;4690;52.422;13.486;2023-03-03T00:58:23;102003.75;;;1.98;83.03
9695;BME280;4690;52.422;13.486;2023-03-03T01:00:52;102000.78;;;2.11;82.11
9695;BME280;4690;52.422;13.486;2023-03-03T01:03:21;102007.63;;;2.15;81.76
9695;BME280;4690;52.422;13.486;2023-03-03T01:05:48;102013.16;;;2.04;81.15
9695;BME280;4690;52.422;13.486;2023-03-03T01:08:15;102005.00;;;1.85;81.56
9695;BME280;4690;52.422;13.486;2023-03-03T01:10:55;102002.97;;;1.77;82.09
9695;BME280;4690;52.422;13.486;2023-03-03T01:13:27;102002.41;;;1.73;82.51
9695;BME280;4690;52.422;13.486;2023-03-03T01:15:53;101999.88;;;1.82;82.63
9695;BME280;4690;52.422;13.486;2023-03-03T01:18:19;101992.22;;;1.87;82.35
9695;BME280;4690;52.422;13.486;2023-03-03T01:20:45;101997.56;;;1.67;82.40
9695;BME280;4690;52.422;13.486;2023-03-03T01:23:12;101989.50;;;1.87;82.22
9695;BME280;4690;52.422;13.486;2023-03-03T01:25:38;101995.34;;;1.92;81.66
9695;BME280;4690;52.422;13.486;2023-03-03T01:28:04;101986.25;;;2.02;81.64
9695;BME280;4690;52.422;13.486;2023-03-03T01:30:30;101985.13;;;2.15;80.99
9695;BME280;4690;52.422;13.486;2023-03-03T01:32:57;101979.03;;;2.22;80.72
9695;BME280;4690;52.422;13.486;2023-03-03T01:35:23;101986.41;;;2.20;81.12
9695;BME280;4690;52.422;13.486;2023-03-03T01:37:49;101991.25;;;2.17;80.80
9695;BME280;4690;52.422;13.486;2023-03-03T01:40:23;101981.72;;;2.13;80.01
9695;BME280;4690;52.422;13.486;2023-03-03T01:42:50;101965.78;;;2.00;80.69
9695;BME280;4690;52.422;13.486;2023-03-03T01:48:29;101969.75;;;2.25;80.71
9695;BME280;4690;52.422;13.486;2023-03-03T01:51:04;101963.19;;;2.28;80.38
9695;BME280;4690;52.422;13.486;2023-03-03T01:53:46;101969.03;;;2.33;79.66
9695;BME280;4690;52.422;13.486;2023-03-03T01:56:13;101961.78;;;2.33;79.96
9695;BME280;4690;52.422;13.486;2023-03-03T01:58:52;101958.22;;;2.33;79.85
9695;BME280;4690;52.422;13.486;2023-03-03T02:01:25;101964.91;;;2.38;79.65
9695;BME280;4690;52.422;13.486;2023-03-03T02:03:52;101963.22;;;2.37;79.93
9695;BME280;4690;52.422;13.486;2023-03-03T02:06:27;101959.78;;;2.35;79.83
9695;BME280;4690;52.422;13.486;2023-03-03T02:09:25;101970.31;;;2.38;79.12
9695;BME280;4690;52.422;13.486;2023-03-03T02:12:00;101954.22;;;2.46;79.63
9695;BME280;4690;52.422;13.486;2023-03-03T02:14:27;101956.94;;;2.46;79.29
9695;BME280;4690;52.422;13.486;2023-03-03T02:16:53;101960.38;;;2.49;79.14
9695;BME280;4690;52.422;13.486;2023-03-03T02:19:36;101971.03;;;2.50;79.14
9695;BME280;4690;52.422;13.486;2023-03-03T02:22:05;101969.91;;;2.33;79.33
9695;BME280;4690;52.422;13.486;2023-03-03T02:24:44;101980.84;;;2.41;80.03
9695;BME280;4690;52.422;13.486;2023-03-03T02:27:11;101975.75;;;2.48;79.64
9695;BME280;4690;52.422;13.486;2023-03-03T02:29:39;101965.75;;;2.58;79.45
9695;BME280;4690;52.422;13.486;2023-03-03T02:32:04;101965.75;;;2.58;78.73
9695;BME280;4690;52.422;13.486;2023-03-03T02:34:30;101971.16;;;2.58;78.82
9695;BME280;4690;52.422;13.486;2023-03-03T02:36:56;101976.88;;;2.65;78.86
9695;BME280;4690;52.422;13.486;2023-03-03T02:39:25;101980.13;;;2.68;78.45
9695;BME280;4690;52.422;13.486;2023-03-03T02:42:21;101977.56;;;2.67;78.31
9695;BME280;4690;52.422;13.486;2023-03-03T02:44:48;101985.53;;;2.68;78.26
9695;BME280;4690;52.422;13.486;2023-03-03T02:47:14;101975.28;;;2.72;78.25
9695;BME280;4690;52.422;13.486;2023-03-03T02:49:40;101970.88;;;2.61;78.21
9695;BME280;4690;52.422;13.486;2023-03-03T02:52:10;101972.59;;;2.62;78.63
9695;BME280;4690;52.422;13.486;2023-03-03T02:54:36;101979.00;;;2.52;79.16
9695;BME280;4690;52.422;13.486;2023-03-03T02:57:03;101970.31;;;2.58;79.23
9695;BME280;4690;52.422;13.486;2023-03-03T02:59:29;101973.44;;;2.63;78.96
9695;BME280;4690;52.422;13.486;2023-03-03T03:01:56;101972.31;;;2.65;79.15
9695;BME280;4690;52.422;13.486;2023-03-03T03:04:24;101963.22;;;2.57;78.77
9695;BME280;4690;52.422;13.486;2023-03-03T03:06:52;101962.91;;;2.60;79.11
9695;BME280;4690;52.422;13.486;2023-03-03T03:09:21;101964.19;;;2.56;79.45
9695;BME280;4690;52.422;13.486;2023-03-03T03:11:48;101976.72;;;2.57;79.35
9695;BME280;4690;52.422;13.486;2023-03-03T03:14:14;101976.56;;;2.58;79.28
9695;BME280;4690;52.422;13.486;2023-03-03T03:16:41;101989.53;;;2.55;79.74
9695;BME280;4690;52.422;13.486;2023-03-03T03:19:07;101981.84;;;2.60;79.80
9695;BME280;4690;52.422;13.486;2023-03-03T03:21:33;101976.72;;;2.66;79.21
9695;BME280;4690;52.422;13.486;2023-03-03T03:23:59;101989.13;;;2.59;79.53
9695;BME280;4690;52.422;13.486;2023-03-03T03:26:25;101992.97;;;2.57;79.39
9695;BME280;4690;52.422;13.486;2023-03-03T03:28:52;102001.34;;;2.63;79.42
9695;BME280;4690;52.422;13.486;2023-03-03T03:31:19;102002.63;;;2.69;79.16
9695;BME280;4690;52.422;13.486;2023-03-03T03:33:46;101992.53;;;2.71;79.33
9695;BME280;4690;52.422;13.486;2023-03-03T03:36:12;101991.38;;;2.74;78.65
9695;BME280;4690;52.422;13.486;2023-03-03T03:38:38;101992.06;;;2.76;79.29
9695;BME280;4690;52.422;13.486;2023-03-03T03:41:05;101990.50;;;2.73;78.88
9695;BME280;4690;52.422;13.486;2023-03-03T03:43:32;102000.78;;;2.79;78.60
9695;BME280;4690;52.422;13.486;2023-03-03T03:45:58;101999.03;;;2.78;78.68
9695;BME280;4690;52.422;13.486;2023-03-03T03:48:24;102004.75;;;2.75;78.47
9695;BME280;4690;52.422;13.486;2023-03-03T03:50:50;102008.03;;;2.69;78.31
9695;BME280;4690;52.422;13.486;2023-03-03T03:53:16;101996.94;;;2.62;78.94
9695;BME280;4690;52.422;13.486;2023-03-03T03:55:44;101989.97;;;2.60;79.02
9695;BME280;4690;52.422;13.486;2023-03-03T03:58:13;101985.44;;;2.51;78.67
9695;BME280;4690;52.422;13.486;2023-03-03T04:00:40;101987.56;;;2.57;79.11
9695;BME280;4690;52.422;13.486;2023-03-03T04:03:08;101981.84;;;2.50;79.03
9695;BME280;4690;52.422;13.486;2023-03-03T04:05:34;101981.28;;;2.56;79.38
9695;BME280;4690;52.422;13.486;2023-03-03T04:07:59;101968.16;;;2.61;78.85
9695;BME280;4690;52.422;13.486;2023-03-03T04:10:25;101971.59;;;2.63;78.91
9695;BME280;4690;52.422;13.486;2023-03-03T04:12:51;101965.19;;;2.55;78.86
9695;BME280;4690;52.422;13.486;2023-03-03T04:15:17;101972.31;;;2.56;79.09
9695;BME280;4690;52.422;13.486;2023-03-03T04:17:42;101966.59;;;2.59;79.29
9695;BME280;4690;52.422;13.486;2023-03-03T04:20:12;101964.91;;;2.58;78.80
9695;BME280;4690;52.422;13.486;2023-03-03T04:22:40;101962.19;;;2.58;78.99
9695;BME280;4690;52.422;13.486;2023-03-03T04:25:06;101962.19;;;2.58;79.00
9695;BME280;4690;52.422;13.486;2023-03-03T04:27:35;101961.94;;;2.51;79.51
9695;BME280;4690;52.422;13.486;2023-03-03T04:30:04;101960.63;;;2.55;79.55
9695;BME280;4690;52.422;13.486;2023-03-03T04:32:30;101962.63;;;2.53;79.06
9695;BME280;4690;52.422;13.486;2023-03-03T04:34:58;101961.09;;;2.51;79.25
9695;BME280;4690;52.422;13.486;2023-03-03T04:37:24;101962.78;;;2.52;79.20
9695;BME280;4690;52.422;13.486;2023-03-03T04:39:50;101954.94;;;2.49;79.68
9695;BME280;4690;52.422;13.486;2023-03-03T04:42:16;101965.19;;;2.35;79.91
9695;BME280;4690;52.422;13.486;2023-03-03T04:44:42;101952.25;;;2.29;79.92
9695;BME280;4690;52.422;13.486;2023-03-03T04:47:08;101957.09;;;2.35;80.13
9695;BME280;4690;52.422;13.486;2023-03-03T04:49:34;101959.97;;;2.34;80.10
9695;BME280;4690;52.422;13.486;2023-03-03T04:52:00;101965.91;;;2.37;79.97
9695;BME280;4690;52.422;13.486;2023-03-03T04:54:25;101973.59;;;2.32;80.39
9695;BME280;4690;52.422;13.486;2023-03-03T04:56:51;101971.19;;;2.29;80.54
9695;BME280;4690;52.422;13.486;2023-03-03T04:59:17;101966.63;;;2.30;80.45
9695;BME280;4690;52.422;13.486;2023-03-03T05:01:43;101965.50;;;2.13;81.28
9695;BME280;4690;52.422;13.486;2023-03-03T05:04:10;101969.78;;;2.06;80.90
9695;BME280;4690;52.422;13.486;2023-03-03T05:06:36;101960.38;;;2.00;81.03
9695;BME280;4690;52.422;13.486;2023-03-03T05:09:03;101972.28;;;1.88;82.52
9695;BME280;4690;52.422;13.486;2023-03-03T05:11:28;101972.00;;;1.81;82.06
9695;BME280;4690;52.422;13.486;2023-03-03T05:13:54;101964.88;;;1.80;82.82
9695;BME280;4690;52.422;13.486;2023-03-03T05:16:20;101956.03;;;1.68;81.98
9695;BME280;4690;52.422;13.486;2023-03-03T05:18:46;101956.53;;;1.43;83.53
9695;BME280;4690;52.422;13.486;2023-03-03T05:21:13;101952.53;;;1.37;84.13
9695;BME280;4690;52.422;13.486;2023-03-03T05:23:39;101956.25;;;1.46;83.63
9695;BME280;4690;52.422;13.486;2023-03-03T05:26:05;101959.50;;;1.40;84.65
9695;BME280;4690;52.422;13.486;2023-03-03T05:28:32;101965.09;;;1.57;83.70
9695;BME280;4690;52.422;13.486;2023-03-03T05:30:58;101963.28;;;1.58;84.00
9695;BME280;4690;52.422;13.486;2023-03-03T05:33:24;101966.84;;;1.68;82.71
9695;BME280;4690;52.422;13.486;2023-03-03T05:35:54;101967.69;;;1.69;83.12
9695;BME280;4690;52.422;13.486;2023-03-03T05:38:21;101971.97;;;1.71;83.07
9695;BME280;4690;52.422;13.486;2023-03-03T05:40:47;101974.34;;;1.55;82.60
9695;BME280;4690;52.422;13.486;2023-03-03T05:43:13;101975.81;;;1.28;83.49
9695;BME280;4690;52.422;13.486;2023-03-03T05:45:39;101975.78;;;1.19;84.44
9695;BME280;4690;52.422;13.486;2023-03-03T05:48:05;101975.41;;;1.02;85.51
9695;BME280;4690;52.422;13.486;2023-03-03T05:50:31;101989.28;;;1.19;86.12
9695;BME280;4690;52.422;13.486;2023-03-03T05:52:57;101990.06;;;1.40;85.21
9695;BME280;4690;52.422;13.486;2023-03-03T05:55:23;101990.13;;;1.50;84.89
9695;BME280;4690;52.422;13.486;2023-03-03T05:57:49;101999.97;;;1.61;84.04
9695;BME280;4690;52.422;13.486;2023-03-03T06:00:16;102000.53;;;1.64;83.52
9695;BME280;4690;52.422;13.486;2023-03-03T06:02:42;101993.84;;;1.68;83.03
9695;BME280;4690;52.422;13.486;2023-03-03T06:05:09;101994.72;;;1.69;83.67
9695;BME280;4690;52.422;13.486;2023-03-03T06:07:36;101994.47;;;1.72;83.02
9695;BME280;4690;52.422;13.486;2023-03-03T06:10:03;101998.47;;;1.77;82.86
9695;BME280;4690;52.422;13.486;2023-03-03T06:12:29;101996.44;;;1.79;82.97
9695;BME280;4690;52.422;13.486;2023-03-03T06:14:55;102004.16;;;1.84;82.55
9695;BME280;4690;52.422;13.486;2023-03-03T06:17:21;101995.88;;;1.76;83.05
9695;BME280;4690;52.422;13.486;2023-03-03T06:19:46;101992.44;;;1.74;83.26
9695;BME280;4690;52.422;13.486;2023-03-03T06:22:13;101989.06;;;1.72;83.78
9695;BME280;4690;52.422;13.486;2023-03-03T06:24:39;101997.50;;;1.57;83.30
9695;BME280;4690;52.422;13.486;2023-03-03T06:27:04;102003.13;;;1.75;83.46
9695;BME280;4690;52.422;13.486;2023-03-03T06:29:30;102008.81;;;1.82;83.15
9695;BME280;4690;52.422;13.486;2023-03-03T06:31:56;102010.00;;;1.89;83.41
9695;BME280;4690;52.422;13.486;2023-03-03T06:34:22;102012.81;;;1.88;82.80
9695;BME280;4690;52.422;13.486;2023-03-03T06:36:48;102020.25;;;1.95;83.04
9695;BME280;4690;52.422;13.486;2023-03-03T06:39:14;102021.25;;;2.04;83.25
9695;BME280;4690;52.422;13.486;2023-03-03T06:41:40;102014.16;;;2.13;82.54
9695;BME280;4690;52.422;13.486;2023-03-03T06:44:05;102017.44;;;2.16;82.54
9695;BME280;4690;52.422;13.486;2023-03-03T06:46:31;102019.41;;;2.05;82.48
9695;BME280;4690;52.422;13.486;2023-03-03T06:48:57;102014.00;;;2.05;82.33
9695;BME280;4690;52.422;13.486;2023-03-03T06:51:30;102018.44;;;2.06;81.72
9695;BME280;4690;52.422;13.486;2023-03-03T06:54:14;102022.66;;;1.98;81.76
9695;BME280;4690;52.422;13.486;2023-03-03T06:56:42;102030.22;;;1.95;81.75
9695;BME280;4690;52.422;13.486;2023-03-03T06:59:18;102038.16;;;1.96;81.72
9695;BME280;4690;52.422;13.486;2023-03-03T07:01:48;102043.47;;;2.08;82.13
9695;BME280;4690;52.422;13.486;2023-03-03T07:04:30;102045.47;;;2.06;81.53
9695;BME280;4690;52.422;13.486;2023-03-03T07:07:06;102053.56;;;2.06;82.06
9695;BME280;4690;52.422;13.486;2023-03-03T07:09:35;102051.72;;;2.06;82.05
9695;BME280;4690;52.422;13.486;2023-03-03T07:12:19;102055.41;;;2.05;82.03
9695;BME280;4690;52.422;13.486;2023-03-03T07:14:51;102051.56;;;2.08;81.30
9695;BME280;4690;52.422;13.486;2023-03-03T07:17:24;102041.59;;;2.08;81.91
9695;BME280;4690;52.422;13.486;2023-03-03T07:19:50;102053.38;;;1.88;82.24
9695;BME280;4690;52.422;13.486;2023-03-03T07:22:18;102054.97;;;1.60;83.37
9695;BME280;4690;52.422;13.486;2023-03-03T07:24:47;102053.13;;;1.60;83.66
9695;BME280;4690;52.422;13.486;2023-03-03T07:27:31;102056.91;;;1.48;83.66
9695;BME280;4690;52.422;13.486;2023-03-03T07:30:24;102070.06;;;1.62;84.27
9695;BME280;4690;52.422;13.486;2023-03-03T07:32:54;102056.50;;;1.83;83.33
9695;BME280;4690;52.422;13.486;2023-03-03T07:35:42;102070.03;;;1.93;83.22
9695;BME280;4690;52.422;13.486;2023-03-03T07:38:38;102071.50;;;2.07;82.32
9695;BME280;4690;52.422;13.486;2023-03-03T07:41:14;102069.66;;;2.07;82.18
9695;BME280;4690;52.422;13.486;2023-03-03T07:43:52;102073.78;;;2.11;81.21
9695;BME280;4690;52.422;13.486;2023-03-03T07:46:40;102073.25;;;2.17;81.86
9695;BME280;4690;52.422;13.486;2023-03-03T07:49:34;102071.09;;;2.21;81.08
9695;BME280;4690;52.422;13.486;2023-03-03T07:52:01;102069.53;;;2.18;81.70
9695;BME280;4690;52.422;13.486;2023-03-03T07:54:39;102071.38;;;2.28;80.78
9695;BME280;4690;52.422;13.486;2023-03-03T07:57:28;102070.84;;;2.34;81.45
9695;BME280;4690;52.422;13.486;2023-03-03T08:08:24;102082.63;;;2.23;81.72
9695;BME280;4690;52.422;13.486;2023-03-03T08:10:51;102080.09;;;2.31;81.92
9695;BME280;4690;52.422;13.486;2023-03-03T08:13:39;102074.22;;;2.16;81.84
9695;BME280;4690;52.422;13.486;2023-03-03T08:21:20;102082.75;;;2.12;81.53
9695;BME280;4690;52.422;13.486;2023-03-03T08:23:47;102079.94;;;2.23;81.57
9695;BME280;4690;52.422;13.486;2023-03-03T08:26:26;102078.97;;;2.43;81.69
9695;BME280;4690;52.422;13.486;2023-03-03T08:28:53;102077.13;;;2.54;80.69
9695;BME280;4690;52.422;13.486;2023-03-03T08:31:19;102073.44;;;2.45;81.19
9695;BME280;4690;52.422;13.486;2023-03-03T08:33:45;102069.41;;;2.59;79.83
9695;BME280;4690;52.422;13.486;2023-03-03T08:36:12;102079.09;;;2.42;81.00
9695;BME280;4690;52.422;13.486;2023-03-03T08:38:38;102077.53;;;2.59;80.89
9695;BME280;4690;52.422;13.486;2023-03-03T08:41:05;102073.56;;;2.82;80.66
9695;BME280;4690;52.422;13.486;2023-03-03T08:43:32;102072.00;;;2.99;79.70
9695;BME280;4690;52.422;13.486;2023-03-03T08:46:00;102075.38;;;3.01;79.09
9695;BME280;4690;52.422;13.486;2023-03-03T08:48:27;102078.69;;;3.05;78.78
9695;BME280;4690;52.422;13.486;2023-03-03T08:50:54;102078.97;;;2.63;79.03
9695;BME280;4690;52.422;13.486;2023-03-03T08:53:21;102080.13;;;2.80;79.81
9695;BME280;4690;52.422;13.486;2023-03-03T08:55:48;102081.97;;;2.89;79.27
9695;BME280;4690;52.422;13.486;2023-03-03T08:58:16;102083.97;;;2.97;79.23
9695;BME280;4690;52.422;13.486;2023-03-03T09:00:42;102090.19;;;3.07;79.08
9695;BME280;4690;52.422;13.486;2023-03-03T09:03:08;102084.63;;;3.18;78.85
9695;BME280;4690;52.422;13.486;2023-03-03T09:05:36;102083.94;;;3.16;78.80
9695;BME280;4690;52.422;13.486;2023-03-03T09:08:04;102077.94;;;3.22;78.38
9695;BME280;4690;52.422;13.486;2023-03-03T09:10:30;102087.34;;;3.08;78.40
9695;BME280;4690;52.422;13.486;2023-03-03T09:13:16;102068.44;;;2.69;79.35
9695;BME280;4690;52.422;13.486;2023-03-03T09:15:45;102074.28;;;2.45;80.56
9695;BME280;4690;52.422;13.486;2023-03-03T09:18:25;102079.53;;;2.66;80.80
9695;BME280;4690;52.422;13.486;2023-03-03T09:20:55;102077.25;;;2.81;80.41
9695;BME280;4690;52.422;13.486;2023-03-03T09:23:39;102080.97;;;3.00;79.25
9695;BME280;4690;52.422;13.486;2023-03-03T09:28:48;102069.41;;;2.78;79.69
9695;BME280;4690;52.422;13.486;2023-03-03T09:31:41;102075.97;;;2.37;80.92
9695;BME280;4690;52.422;13.486;2023-03-03T09:39:43;102074.22;;;3.23;78.04
9695;BME280;4690;52.422;13.486;2023-03-03T09:45:34;102075.72;;;3.82;77.01
9695;BME280;4690;52.422;13.486;2023-03-03T09:56:39;102088.84;;;4.15;74.00
9695;BME280;4690;52.422;13.486;2023-03-03T09:59:25;102079.06;;;4.22;74.71
9695;BME280;4690;52.422;13.486;2023-03-03T10:05:19;102066.31;;;3.77;74.78
9695;BME280;4690;52.422;13.486;2023-03-03T10:08:02;102072.06;;;4.01;74.63
9695;BME280;4690;52.422;13.486;2023-03-03T10:11:00;102081.56;;;4.33;73.43
9695;BME280;4690;52.422;13.486;2023-03-03T10:13:43;102072.44;;;4.52;72.30
9695;BME280;4690;52.422;13.486;2023-03-03T10:19:38;102075.16;;;4.88;72.26
9695;BME280;4690;52.422;13.486;2023-03-03T10:22:42;102071.59;;;4.87;71.03
9695;BME280;4690;52.422;13.486;2023-03-03T10:25:41;102071.66;;;4.24;71.75
9695;BME280;4690;52.422;13.486;2023-03-03T10:34:10;102057.63;;;4.29;71.78
9695;BME280;4690;52.422;13.486;2023-03-03T10:36:56;102061.44;;;4.71;73.00
9695;BME280;4690;52.422;13.486;2023-03-03T10:39:32;102060.38;;;5.08;72.02
9695;BME280;4690;52.422;13.486;2023-03-03T10:57:07;102071.47;;;5.15;71.44
9695;BME280;4690;52.422;13.486;2023-03-03T11:00:02;102066.34;;;5.12;69.89
9695;BME280;4690;52.422;13.486;2023-03-03T11:02:37;102071.38;;;5.25;70.89
9695;BME280;4690;52.422;13.486;2023-03-03T11:08:52;102076.94;;;5.75;68.58
9695;BME280;4690;52.422;13.486;2023-03-03T11:11:52;102075.59;;;5.79;67.96
9695;BME280;4690;52.422;13.486;2023-03-03T11:14:38;102071.81;;;5.98;67.73
9695;BME280;4690;52.422;13.486;2023-03-03T11:23:28;102072.53;;;6.09;66.20
9695;BME280;4690;52.422;13.486;2023-03-03T11:31:54;102063.66;;;5.98;66.30
9695;BME280;4690;52.422;13.486;2023-03-03T11:38:14;102073.38;;;5.75;68.68
9695;BME280;4690;52.422;13.486;2023-03-03T11:40:56;102072.13;;;5.95;68.30
9695;BME280;4690;52.422;13.486;2023-03-03T11:43:41;102072.91;;;5.88;66.86
9695;BME280;4690;52.422;13.486;2023-03-03T11:46:22;102066.44;;;5.80;68.31
9695;BME280;4690;52.422;13.486;2023-03-03T11:49:14;102060.31;;;5.78;67.82
9695;BME280;4690;52.422;13.486;2023-03-03T11:52:27;102058.56;;;6.03;67.98
9695;BME280;4690;52.422;13.486;2023-03-03T11:55:40;102066.75;;;6.12;68.40
9695;BME280;4690;52.422;13.486;2023-03-03T11:58:29;102039.91;;;6.17;66.37
9695;BME280;4690;52.422;13.486;2023-03-03T12:04:43;102036.19;;;6.34;66.89
9695;BME280;4690;52.422;13.486;2023-03-03T12:12:44;102023.69;;;5.65;69.61
9695;BME280;4690;52.422;13.486;2023-03-03T12:15:38;102017.72;;;5.61;69.49
9695;BME280;4690;52.422;13.486;2023-03-03T12:37:07;101995.53;;;5.39;71.79
9695;BME280;4690;52.422;13.486;2023-03-03T12:40:09;101998.69;;;5.61;71.88
9695;BME280;4690;52.422;13.486;2023-03-03T12:48:18;101982.50;;;5.94;70.72
9695;BME280;4690;52.422;13.486;2023-03-03T12:53:57;101993.88;;;5.89;70.75
9695;BME280;4690;52.422;13.486;2023-03-03T12:56:48;101986.09;;;6.02;69.39
9695;BME280;4690;52.422;13.486;2023-03-03T13:00:02;101980.84;;;6.01;69.90
9695;BME280;4690;52.422;13.486;2023-03-03T13:11:50;101970.16;;;5.65;71.42
9695;BME280;4690;52.422;13.486;2023-03-03T13:15:02;101972.13;;;5.47;71.54
9695;BME280;4690;52.422;13.486;2023-03-03T13:17:39;101973.00;;;5.55;72.32
9695;BME280;4690;52.422;13.486;2023-03-03T13:21:06;101965.91;;;5.71;71.58
9695;BME280;4690;52.422;13.486;2023-03-03T13:23:56;101959.78;;;6.11;71.21
9695;BME280;4690;52.422;13.486;2023-03-03T13:31:38;101956.72;;;6.63;68.25
9695;BME280;4690;52.422;13.486;2023-03-03T13:34:17;101952.97;;;6.81;67.78
9695;BME280;4690;52.422;13.486;2023-03-03T13:36:57;101945.00;;;6.63;67.12
9695;BME280;4690;52.422;13.486;2023-03-03T13:39:32;101959.66;;;6.54;68.25
9695;BME280;4690;52.422;13.486;2023-03-03T13:42:24;101951.13;;;6.40;68.23
9695;BME280;4690;52.422;13.486;2023-03-03T13:44:55;101950.63;;;6.45;68.49
9695;BME280;4690;52.422;13.486;2023-03-03T13:47:49;101957.75;;;6.38;68.30
9695;BME280;4690;52.422;13.486;2023-03-03T13:50:43;101954.69;;;6.24;69.17
9695;BME280;4690;52.422;13.486;2023-03-03T14:07:48;101932.56;;;6.60;68.35
9695;BME280;4690;52.422;13.486;2023-03-03T14:10:32;101927.72;;;5.80;70.76
9695;BME280;4690;52.422;13.486;2023-03-03T14:13:14;101924.53;;;6.01;71.70
9695;BME280;4690;52.422;13.486;2023-03-03T14:15:52;101926.59;;;6.16;71.02
9695;BME280;4690;52.422;13.486;2023-03-03T14:18:38;101930.88;;;6.43;69.76
9695;BME280;4690;52.422;13.486;2023-03-03T14:21:23;101918.59;;;6.47;68.92
9695;BME280;4690;52.422;13.486;2023-03-03T14:24:14;101918.78;;;6.54;68.72
9695;BME280;4690;52.422;13.486;2023-03-03T14:26:48;101914.00;;;6.06;70.25
9695;BME280;4690;52.422;13.486;2023-03-03T14:29:31;101911.22;;;5.82;71.73
9695;BME280;4690;52.422;13.486;2023-03-03T14:32:01;101910.22;;;5.83;71.66
9695;BME280;4690;52.422;13.486;2023-03-03T14:34:40;101910.69;;;5.70;72.58
9695;BME280;4690;52.422;13.486;2023-03-03T14:37:25;101906.31;;;5.94;72.16
9695;BME280;4690;52.422;13.486;2023-03-03T14:45:40;101907.06;;;5.53;73.81
9695;BME280;4690;52.422;13.486;2023-03-03T14:50:41;101904.41;;;5.78;73.67
9695;BME280;4690;52.422;13.486;2023-03-03T14:53:33;101899.56;;;5.98;72.10
9695;BME280;4690;52.422;13.486;2023-03-03T14:56:21;101906.88;;;6.22;70.98
9695;BME280;4690;52.422;13.486;2023-03-03T14:58:50;101891.91;;;6.50;70.11
9695;BME280;4690;52.422;13.486;2023-03-03T15:01:28;101888.50;;;6.57;69.66
9695;BME280;4690;52.422;13.486;2023-03-03T15:04:24;101881.84;;;6.59;69.52
9695;BME280;4690;52.422;13.486;2023-03-03T15:06:53;101886.94;;;6.70;68.92
9695;BME280;4690;52.422;13.486;2023-03-03T15:11:59;101880.13;;;6.66;69.40
9695;BME280;4690;52.422;13.486;2023-03-03T15:14:31;101881.47;;;6.79;68.79
9695;BME280;4690;52.422;13.486;2023-03-03T15:26:18;101869.72;;;6.70;69.28
9695;BME280;4690;52.422;13.486;2023-03-03T15:32:01;101863.88;;;6.89;68.25
9695;BME280;4690;52.422;13.486;2023-03-03T15:40:29;101853.97;;;6.24;71.13
9695;BME280;4690;52.422;13.486;2023-03-03T15:43:43;101854.63;;;6.43;70.26
9695;BME280;4690;52.422;13.486;2023-03-03T15:46:39;101848.97;;;6.61;70.20
9695;BME280;4690;52.422;13.486;2023-03-03T15:49:46;101849.81;;;6.61;69.88
9695;BME280;4690;52.422;13.486;2023-03-03T15:52:36;101845.06;;;6.63;69.15
9695;BME280;4690;52.422;13.486;2023-03-03T15:55:41;101847.16;;;6.45;69.77
9695;BME280;4690;52.422;13.486;2023-03-03T16:01:16;101846.63;;;6.49;70.81
9695;BME280;4690;52.422;13.486;2023-03-03T16:17:48;101840.19;;;6.42;70.05
9695;BME280;4690;52.422;13.486;2023-03-03T16:23:35;101845.31;;;6.21;71.28
9695;BME280;4690;52.422;13.486;2023-03-03T16:29:30;101834.41;;;6.13;71.99
9695;BME280;4690;52.422;13.486;2023-03-03T16:32:20;101835.94;;;5.99;71.77
9695;BME280;4690;52.422;13.486;2023-03-03T16:35:00;101834.03;;;5.67;73.64
9695;BME280;4690;52.422;13.486;2023-03-03T16:38:05;101835.72;;;5.68;73.57
9695;BME280;4690;52.422;13.486;2023-03-03T16:40:55;101830.63;;;5.73;73.42
9695;BME280;4690;52.422;13.486;2023-03-03T16:46:34;101833.63;;;5.45;74.48
9695;BME280;4690;52.422;13.486;2023-03-03T16:49:26;101830.44;;;5.50;74.90
9695;BME280;4690;52.422;13.486;2023-03-03T16:52:07;101829.25;;;5.52;74.40
9695;BME280;4690;52.422;13.486;2023-03-03T16:54:46;101826.50;;;5.44;74.26
9695;BME280;4690;52.422;13.486;2023-03-03T17:00:20;101826.50;;;5.36;75.03
9695;BME280;4690;52.422;13.486;2023-03-03T17:03:22;101824.72;;;5.10;76.10
9695;BME280;4690;52.422;13.486;2023-03-03T17:27:25;101830.44;;;4.99;76.99
9695;BME280;4690;52.422;13.486;2023-03-03T17:36:10;101813.34;;;4.72;77.84
9695;BME280;4690;52.422;13.486;2023-03-03T17:42:00;101811.34;;;4.83;78.27
9695;BME280;4690;52.422;13.486;2023-03-03T17:47:21;101822.69;;;4.78;77.31
9695;BME280;4690;52.422;13.486;2023-03-03T17:50:48;101818.44;;;4.76;78.15
9695;BME280;4690;52.422;13.486;2023-03-03T17:59:28;101820.16;;;4.77;78.24
9695;BME280;4690;52.422;13.486;2023-03-03T18:11:21;101811.84;;;4.78;78.45